Time;durP1;ratioP1;P1;durP2;ratioP2;P2;SDS_P1;SDS_P2;PMS_P1;PMS_P2;Temp;Humidity;BMP_temperature;BMP_pressure;BME280_temperature;BME280_humidity;BME280_pressure;Samples;Min_cycle;Max_cycle;Signal;HPM_P1;HPM_P2
2022/11/03 06:05:20;;;;;;;9.10;2.75;;;;;;;10.57;96.71;100891.75;5010857;28;20057;-76
2022/11/03 06:07:46;;;;;;;12.23;2.65;;;;;;;10.55;96.73;100891.31;5021367;28;20029;-76
2022/11/03 06:10:35;;;;;;;19.38;3.75;;;;;;;10.67;95.89;100899.50;5020429;28;20943;-76
2022/11/03 06:13:06;;;;;;;13.70;4.22;;;;;;;10.61;96.39;100894.59;5064232;22;20061;-76
2022/11/03 06:15:34;;;;;;;11.05;3.28;;;;;;;10.60;96.42;100898.56;5034248;28;20029;-76
2022/11/03 06:18:09;;;;;;;15.88;3.88;;;;;;;10.60;96.01;100888.19;5034794;28;20041;-76
2022/11/03 06:20:35;;;;;;;8.30;2.63;;;;;;;10.62;96.58;100880.22;5031826;28;20075;-76
2022/11/03 06:23:01;;;;;;;16.25;3.60;;;;;;;10.62;96.23;100879.41;5034077;28;20434;-76
2022/11/03 06:25:30;;;;;;;11.65;2.83;;;;;;;10.58;96.71;100873.75;5029516;28;20067;-75
2022/11/03 06:28:01;;;;;;;9.65;2.70;;;;;;;10.64;96.11;100872.25;5029505;28;20393;-76
2022/11/03 06:30:32;;;;;;;11.70;3.35;;;;;;;10.55;96.96;100877.31;5025328;28;20059;-75
2022/11/03 06:33:03;;;;;;;17.57;3.93;;;;;;;10.58;97.26;100869.00;5032393;28;20430;-75
2022/11/03 06:35:29;;;;;;;12.93;3.97;;;;;;;10.65;96.35;100873.06;5034591;28;20037;-75
2022/11/03 06:37:57;;;;;;;10.48;2.83;;;;;;;10.61;97.26;100878.63;5034324;28;21107;-76
2022/11/03 06:40:35;;;;;;;8.57;3.25;;;;;;;10.57;96.89;100888.94;5026040;28;20661;-75
2022/11/03 06:43:35;;;;;;;11.25;2.83;;;;;;;10.61;97.41;100878.63;5020654;28;20054;-75
2022/11/03 06:46:11;;;;;;;7.82;2.72;;;;;;;10.61;97.16;100867.41;5026649;28;20029;-76
2022/11/03 06:48:38;;;;;;;9.63;3.50;;;;;;;10.60;97.88;100871.38;5031225;28;20075;-75
2022/11/03 06:51:15;;;;;;;10.40;2.92;;;;;;;10.63;97.54;100867.84;5031150;28;20029;-75
2022/11/03 06:53:40;;;;;;;16.83;3.15;;;;;;;10.65;97.04;100865.47;5038504;28;20064;-76
2022/11/03 06:56:11;;;;;;;16.13;3.17;;;;;;;10.65;97.11;100867.47;5035456;28;20057;-75
2022/11/03 06:58:37;;;;;;;12.02;3.90;;;;;;;10.69;97.25;100857.94;5028720;28;20056;-75
2022/11/03 07:01:24;;;;;;;14.50;3.72;;;;;;;10.74;97.38;100857.59;5029220;28;20171;-75
2022/11/03 07:03:55;;;;;;;11.68;3.50;;;;;;;10.81;96.57;100864.47;5007937;28;20108;-76
2022/11/03 07:06:23;;;;;;;20.55;4.80;;;;;;;11.01;96.14;100854.75;5020142;28;20456;-76
2022/11/03 07:08:55;;;;;;;12.23;3.40;;;;;;;10.89;96.16;100849.38;5018163;28;20029;-76
2022/11/03 07:11:23;;;;;;;16.58;3.50;;;;;;;10.84;96.67;100852.53;5020966;28;20037;-76
2022/11/03 07:13:52;;;;;;;15.05;3.88;;;;;;;10.85;96.96;100848.53;5017776;28;20154;-76
2022/11/03 07:16:28;;;;;;;9.75;3.70;;;;;;;10.90;96.54;100851.81;5014632;28;20041;-76
2022/11/03 07:18:55;;;;;;;11.07;4.43;;;;;;;10.88;96.77;100856.16;5014424;28;20059;-76
2022/11/03 07:21:31;;;;;;;9.15;3.67;;;;;;;10.88;97.01;100842.16;5010653;28;20170;-75
2022/11/03 07:24:03;;;;;;;14.15;4.03;;;;;;;10.90;97.25;100836.97;5015747;28;20479;-75
2022/11/03 07:26:29;;;;;;;15.45;3.55;;;;;;;10.94;97.45;100838.66;5017042;28;20029;-75
2022/11/03 07:28:54;;;;;;;12.68;3.88;;;;;;;10.98;97.22;100835.88;5011799;28;20092;-76
2022/11/03 07:31:22;;;;;;;11.30;3.67;;;;;;;10.98;97.56;100830.28;5011354;28;21332;-76
2022/11/03 07:33:49;;;;;;;15.55;3.72;;;;;;;10.98;98.02;100839.50;5012589;28;20151;-75
2022/11/03 07:36:21;;;;;;;11.45;3.10;;;;;;;11.00;97.92;100839.09;5018253;28;20057;-76
2022/11/03 07:38:50;;;;;;;15.97;3.40;;;;;;;11.09;97.89;100831.22;5018884;28;20112;-78
2022/11/03 07:41:19;;;;;;;14.15;3.05;;;;;;;11.13;97.45;100823.69;5015693;28;20040;-76
2022/11/03 07:43:56;;;;;;;9.85;3.30;;;;;;;11.13;97.88;100832.09;5021773;28;20025;-76
2022/11/03 07:46:23;;;;;;;12.55;4.25;;;;;;;11.09;97.61;100814.41;5000737;28;20108;-76
2022/11/03 07:49:01;;;;;;;12.25;3.72;;;;;;;11.13;97.89;100825.66;5022947;28;20037;-77
2022/11/03 07:51:28;;;;;;;6.30;3.13;;;;;;;11.15;98.15;100829.69;5010213;28;20029;-76
2022/11/03 07:54:07;;;;;;;11.73;2.97;;;;;;;11.18;97.78;100823.31;5021009;28;20032;-76
2022/11/03 07:56:38;;;;;;;8.40;3.55;;;;;;;11.19;98.04;100830.56;5013712;28;20484;-76
2022/11/03 07:59:14;;;;;;;10.93;3.35;;;;;;;11.25;97.97;100830.19;5016523;28;20049;-77
2022/11/03 08:01:42;;;;;;;8.77;2.95;;;;;;;11.25;98.00;100821.78;5012653;28;20396;-75
2022/11/03 08:04:12;;;;;;;12.73;3.90;;;;;;;11.25;97.50;100811.38;5013152;28;20034;-77
2022/11/03 08:06:37;;;;;;;14.75;3.92;;;;;;;11.27;98.06;100813.81;5015194;28;20025;-76
2022/11/03 08:09:03;;;;;;;8.85;2.90;;;;;;;11.33;97.97;100817.88;5012804;28;20047;-77
2022/11/03 08:11:29;;;;;;;9.45;2.90;;;;;;;11.33;97.47;100823.47;5023431;28;20487;-77
2022/11/03 08:13:55;;;;;;;9.15;3.00;;;;;;;11.29;97.82;100817.03;5020564;28;20053;-76
2022/11/03 08:16:20;;;;;;;14.05;4.18;;;;;;;11.35;97.72;100812.69;5021695;28;20040;-77
2022/11/03 08:18:46;;;;;;;9.40;3.30;;;;;;;11.38;97.60;100820.31;5022045;28;20060;-77
2022/11/03 08:21:12;;;;;;;13.38;3.78;;;;;;;11.41;97.72;100819.56;5021612;28;20053;-77
2022/11/03 08:23:38;;;;;;;14.10;3.15;;;;;;;11.39;97.67;100805.94;5002667;28;20100;-77
2022/11/03 08:26:04;;;;;;;10.93;3.10;;;;;;;11.42;97.86;100801.53;5022074;28;20026;-77
2022/11/03 08:28:30;;;;;;;10.98;3.25;;;;;;;11.50;98.08;100797.63;5012659;28;20041;-76
2022/11/03 08:31:00;;;;;;;10.65;3.53;;;;;;;11.54;97.41;100795.66;5014306;28;20083;-76
2022/11/03 08:33:27;;;;;;;10.32;3.10;;;;;;;11.54;97.32;100800.47;5008603;28;20075;-77
2022/11/03 08:35:53;;;;;;;17.75;3.78;;;;;;;11.55;97.79;100791.66;5008838;28;20181;-77
2022/11/03 08:38:18;;;;;;;10.00;3.20;;;;;;;11.53;98.16;100784.81;5018232;28;20396;-76
2022/11/03 08:40:44;;;;;;;13.65;4.05;;;;;;;11.59;97.56;100788.88;5019514;28;20025;-76
2022/11/03 08:43:09;;;;;;;11.27;3.20;;;;;;;11.63;97.46;100791.72;5017817;28;20025;-77
2022/11/03 08:45:34;;;;;;;12.43;3.50;;;;;;;11.67;97.72;100787.75;5012489;28;20041;-76
2022/11/03 08:48:00;;;;;;;11.55;2.70;;;;;;;11.69;96.96;100784.56;5006093;28;20464;-77
2022/11/03 08:50:25;;;;;;;12.20;3.60;;;;;;;11.73;97.17;100777.00;5015523;28;20042;-76
2022/11/03 08:52:50;;;;;;;9.10;3.47;;;;;;;11.76;97.66;100779.84;5017122;28;20124;-76
2022/11/03 08:55:16;;;;;;;16.83;4.18;;;;;;;11.76;97.39;100784.63;5014486;28;20116;-76
2022/11/03 08:57:41;;;;;;;12.57;3.15;;;;;;;11.77;97.47;100777.81;5013209;28;20034;-77
2022/11/03 09:00:07;;;;;;;12.32;3.75;;;;;;;11.80;97.10;100771.44;4999780;28;20170;-76
2022/11/03 09:02:32;;;;;;;11.73;3.45;;;;;;;11.85;97.13;100765.47;5012975;28;20045;-77
2022/11/03 09:04:58;;;;;;;13.95;3.45;;;;;;;11.84;96.92;100763.84;5015519;28;20030;-76
2022/11/03 09:07:24;;;;;;;12.57;4.18;;;;;;;11.84;96.96;100747.03;5020100;28;20141;-77
2022/11/03 09:09:50;;;;;;;10.00;3.30;;;;;;;11.87;97.02;100749.06;5011573;28;20037;-77
2022/11/03 09:12:15;;;;;;;13.13;3.13;;;;;;;11.89;96.60;100743.91;5011152;28;20116;-76
2022/11/03 09:14:40;;;;;;;18.02;4.97;;;;;;;11.95;96.94;100741.50;5010560;28;20163;-76
2022/11/03 09:17:06;;;;;;;8.80;4.68;;;;;;;11.96;96.40;100743.94;5017055;28;20037;-76
2022/11/03 09:19:31;;;;;;;11.48;3.22;;;;;;;12.03;96.09;100731.16;5019324;28;20492;-76
2022/11/03 09:21:58;;;;;;;9.90;3.63;;;;;;;12.06;95.78;100719.13;5014630;28;20033;-77
2022/11/03 09:24:24;;;;;;;16.15;3.60;;;;;;;12.08;96.16;100708.31;5016677;28;20042;-77
2022/11/03 09:26:49;;;;;;;12.65;3.05;;;;;;;12.11;95.98;100711.16;5014565;28;20390;-77
2022/11/03 09:29:15;;;;;;;14.77;3.38;;;;;;;12.13;95.29;100707.97;5015533;28;20120;-77
2022/11/03 09:31:40;;;;;;;9.38;3.58;;;;;;;12.20;94.84;100691.16;5013110;28;20445;-77
2022/11/03 09:34:05;;;;;;;8.35;3.53;;;;;;;12.19;94.85;100695.16;4995128;28;20886;-76
2022/11/03 09:36:30;;;;;;;11.60;4.07;;;;;;;12.26;94.73;100685.97;5015807;28;20039;-76
2022/11/03 09:38:56;;;;;;;11.50;3.90;;;;;;;12.39;94.74;100682.41;5014029;28;20044;-76
2022/11/03 09:41:22;;;;;;;16.48;4.28;;;;;;;12.48;94.07;100678.44;5013911;28;20030;-75
2022/11/03 09:43:47;;;;;;;9.63;4.00;;;;;;;12.55;93.27;100670.06;5010133;28;20033;-75
2022/11/03 09:46:14;;;;;;;14.05;3.55;;;;;;;12.62;92.68;100672.88;5016838;28;20156;-77
2022/11/03 09:48:40;;;;;;;9.32;3.80;;;;;;;12.75;92.09;100657.25;5015296;28;20031;-75
2022/11/03 09:51:09;;;;;;;11.00;3.10;;;;;;;12.74;91.08;100657.66;5017505;28;20075;-76
2022/11/03 09:53:34;;;;;;;15.25;3.58;;;;;;;12.89;91.81;100652.88;5019092;28;20053;-76
2022/11/03 09:56:00;;;;;;;9.15;3.53;;;;;;;12.94;90.69;100649.66;5011979;28;20043;-76
2022/11/03 09:58:25;;;;;;;8.90;3.45;;;;;;;12.90;90.32;100644.03;5015793;28;20041;-75
2022/11/03 10:00:50;;;;;;;12.02;3.83;;;;;;;12.86;90.53;100625.56;5013520;28;20047;-77
2022/11/03 10:03:16;;;;;;;11.25;3.22;;;;;;;12.88;90.15;100612.75;5019040;28;20033;-76
2022/11/03 10:05:44;;;;;;;19.95;3.90;;;;;;;12.97;89.60;100615.16;5018207;28;20127;-76
2022/11/03 10:08:27;;;;;;;13.25;3.50;;;;;;;13.00;89.27;100603.88;5014780;28;21661;-76
2022/11/03 10:10:53;;;;;;;;;;;;;;;12.96;90.05;100613.53;5016737;28;20044;-76
2022/11/03 10:13:39;;;;;;;15.27;4.53;;;;;;;13.01;89.34;100587.88;5014265;28;19925;-76
2022/11/03 10:16:07;;;;;;;13.90;5.45;;;;;;;12.94;89.19;100594.25;5016417;28;20041;-77
2022/11/03 10:18:34;;;;;;;10.30;3.40;;;;;;;12.90;90.01;100587.03;5015692;28;20021;-77
2022/11/03 10:21:24;;;;;;;18.15;3.67;;;;;;;12.95;88.92;100581.03;5017616;28;20029;-76
2022/11/03 10:23:49;;;;;;;16.02;3.55;;;;;;;13.02;88.47;100578.22;5028657;28;20480;-77
2022/11/03 10:26:18;;;;;;;8.50;3.78;;;;;;;13.02;89.18;100581.81;5025393;28;20069;-76
2022/11/03 10:29:18;;;;;;;9.73;3.38;;;;;;;13.10;88.37;100567.78;5020489;28;20029;-77
2022/11/03 10:31:48;;;;;;;9.18;3.10;;;;;;;13.21;87.63;100552.50;5016008;28;20052;-76
2022/11/03 10:34:24;;;;;;;13.85;3.38;;;;;;;13.33;87.07;100556.94;5022291;28;20036;-75
2022/11/03 10:37:10;;;;;;;11.95;3.33;;;;;;;13.40;86.45;100547.69;5020183;28;20444;-76
2022/11/03 10:39:36;;;;;;;13.77;3.50;;;;;;;13.58;86.16;100551.25;5016955;28;20120;-75
2022/11/03 10:42:01;;;;;;;17.88;3.33;;;;;;;13.54;85.47;100544.03;5020349;28;20567;-76
2022/11/03 10:44:28;;;;;;;11.15;3.58;;;;;;;13.55;85.42;100540.78;5014879;28;20028;-77
2022/11/03 10:47:02;;;;;;;11.32;3.00;;;;;;;13.53;85.09;100537.59;5014882;28;20115;-76
2022/11/03 10:49:32;;;;;;;11.18;2.63;;;;;;;13.62;85.17;100529.53;5018458;28;20412;-76
2022/11/03 10:52:19;;;;;;;7.70;2.58;;;;;;;13.70;84.33;100524.66;5016079;28;20029;-77
2022/11/03 10:54:45;;;;;;;11.32;2.65;;;;;;;13.67;84.69;100513.44;5019984;28;20029;-78
2022/11/03 10:57:11;;;;;;;10.50;3.00;;;;;;;13.72;83.63;100513.81;5015094;28;20025;-77
2022/11/03 10:59:38;;;;;;;6.00;2.75;;;;;;;13.58;84.05;100516.72;5019282;28;20030;-77
2022/11/03 11:02:14;;;;;;;10.55;2.92;;;;;;;13.68;84.32;100517.84;4996039;28;20036;-76
2022/11/03 11:04:40;;;;;;;11.73;2.90;;;;;;;13.70;83.81;100515.44;5017769;28;20443;-77
2022/11/03 11:07:23;;;;;;;12.38;3.70;;;;;;;13.71;83.42;100505.81;5016319;28;20079;-76
2022/11/03 11:09:49;;;;;;;10.73;2.70;;;;;;;13.69;83.36;100489.31;5015820;28;20065;-76
2022/11/03 11:12:21;;;;;;;5.47;2.60;;;;;;;13.68;83.96;100490.56;5016419;28;20433;-77
2022/11/03 11:14:52;;;;;;;11.85;2.53;;;;;;;13.67;83.72;100480.50;5014972;28;20496;-77
2022/11/03 11:17:36;;;;;;;14.05;3.35;;;;;;;13.73;82.98;100475.25;5011989;28;20092;-76
2022/11/03 11:20:17;;;;;;;10.25;2.80;;;;;;;13.67;82.18;100468.44;5010584;28;20100;-76
2022/11/03 11:22:43;;;;;;;7.45;2.65;;;;;;;13.65;82.64;100456.81;5009864;28;20890;-76
2022/11/03 11:25:08;;;;;;;8.70;2.78;;;;;;;13.71;81.99;100458.00;5013314;28;20641;-76
2022/11/03 11:27:40;;;;;;;12.82;3.58;;;;;;;13.63;82.75;100466.44;4997695;28;20029;-75
2022/11/03 11:30:17;;;;;;;6.10;2.50;;;;;;;13.64;82.87;100456.03;5011892;28;20055;-76
2022/11/03 11:32:48;;;;;;;9.57;2.67;;;;;;;13.61;82.22;100452.00;5012438;28;20040;-76
2022/11/03 11:35:36;;;;;;;7.32;2.75;;;;;;;13.64;82.29;100444.78;5014080;28;20400;-77
2022/11/03 11:38:39;;;;;;;7.88;2.67;;;;;;;13.62;82.19;100442.34;5015333;28;20533;-77
2022/11/03 11:41:05;;;;;;;8.48;3.50;;;;;;;13.63;82.78;100437.53;5018397;28;20480;-76
2022/11/03 11:43:30;;;;;;;6.00;2.30;;;;;;;13.61;81.76;100443.56;5017999;28;20040;-75
2022/11/03 11:46:21;;;;;;;6.55;2.90;;;;;;;13.66;81.82;100436.72;5017681;28;20769;-77
2022/11/03 11:49:00;;;;;;;9.88;2.97;;;;;;;13.66;81.66;100436.72;5024068;28;20680;-77
2022/11/03 11:51:26;;;;;;;7.43;2.58;;;;;;;13.61;81.32;100421.06;5018913;28;20025;-77
2022/11/03 11:53:52;;;;;;;5.38;2.30;;;;;;;13.64;81.54;100427.91;5018666;28;20377;-77
2022/11/03 11:56:18;;;;;;;5.53;2.38;;;;;;;13.65;82.24;100417.44;5010131;28;20091;-77
2022/11/03 11:58:54;;;;;;;8.63;2.38;;;;;;;13.72;81.36;100412.56;5023841;28;20994;-77
2022/11/03 12:01:33;;;;;;;9.98;2.50;;;;;;;13.76;80.14;100404.09;5024125;28;20512;-75
2022/11/03 12:04:04;;;;;;;10.40;2.25;;;;;;;13.87;80.25;100393.59;5023676;28;20072;-76
2022/11/03 12:06:37;;;;;;;6.07;2.35;;;;;;;14.00;79.73;100396.72;5019838;28;20025;-76
2022/11/03 12:09:12;;;;;;;11.75;2.88;;;;;;;14.08;78.87;100389.81;5021811;28;20570;-77
2022/11/03 12:11:46;;;;;;;10.85;3.08;;;;;;;14.17;78.26;100389.34;5022177;28;20025;-77
2022/11/03 12:14:30;;;;;;;10.45;2.55;;;;;;;14.28;77.92;100392.06;5020911;28;20057;-76
2022/11/03 12:16:56;;;;;;;7.57;2.83;;;;;;;14.36;76.72;100391.59;5015713;28;20481;-76
2022/11/03 12:19:39;;;;;;;9.52;3.13;;;;;;;14.31;76.94;100380.75;5017795;28;20469;-77
2022/11/03 12:22:27;;;;;;;11.73;2.67;;;;;;;14.32;76.47;100375.97;5019673;28;20072;-77
2022/11/03 12:24:55;;;;;;;8.43;2.50;;;;;;;14.42;77.11;100375.84;5003456;28;20457;-75
2022/11/03 12:27:23;;;;;;;6.15;2.95;;;;;;;14.34;77.55;100368.69;5021161;28;20043;-77
2022/11/03 12:29:56;;;;;;;9.63;3.53;;;;;;;14.28;77.29;100356.28;5017304;28;22281;-76
2022/11/03 12:32:23;;;;;;;6.85;2.90;;;;;;;14.26;77.13;100355.88;5017212;28;20029;-76
2022/11/03 12:34:48;;;;;;;8.43;2.88;;;;;;;14.25;77.49;100337.38;5012177;28;20041;-77
2022/11/03 12:37:14;;;;;;;8.75;2.85;;;;;;;14.28;76.37;100341.41;5015481;28;20100;-76
2022/11/03 12:39:39;;;;;;;9.50;2.60;;;;;;;14.10;77.05;100331.09;5016276;28;20485;-76
2022/11/03 12:42:05;;;;;;;8.70;2.72;;;;;;;14.17;77.30;100313.38;5015746;28;20025;-76
2022/11/03 12:44:31;;;;;;;9.75;2.33;;;;;;;14.17;77.00;100319.00;5019872;28;20029;-76
2022/11/03 12:46:57;;;;;;;11.27;2.85;;;;;;;14.19;77.74;100311.72;5015888;28;20077;-76
2022/11/03 12:49:22;;;;;;;14.20;2.72;;;;;;;14.19;78.66;100302.50;5007804;28;20021;-75
2022/11/03 12:51:47;;;;;;;12.20;3.05;;;;;;;14.16;77.85;100300.50;5017160;28;20124;-76
2022/11/03 12:54:13;;;;;;;7.50;3.08;;;;;;;14.20;77.05;100292.81;5018775;28;20037;-76
2022/11/03 12:56:38;;;;;;;8.93;3.47;;;;;;;14.17;77.31;100290.84;4994543;28;20029;-77
2022/11/03 12:59:03;;;;;;;10.48;2.78;;;;;;;14.31;77.70;100285.03;5022643;28;20036;-77
2022/11/03 13:01:29;;;;;;;7.53;3.67;;;;;;;14.22;77.21;100281.94;5028981;28;20025;-77
2022/11/03 13:03:54;;;;;;;11.30;3.08;;;;;;;14.35;74.90;100276.56;5025644;28;20124;-76
2022/11/03 13:06:20;;;;;;;8.98;2.75;;;;;;;14.40;76.33;100276.91;5026780;28;20021;-77
2022/11/03 13:08:46;;;;;;;11.48;3.00;;;;;;;14.43;75.72;100270.44;5032261;28;20028;-77
2022/11/03 13:13:55;;;;;;;6.72;2.85;;;;;;;14.45;75.44;100261.59;5017142;28;20059;-76
2022/11/03 13:16:21;;;;;;;7.40;3.25;;;;;;;14.39;76.75;100252.78;5013313;28;20033;-76
2022/11/03 13:18:46;;;;;;;6.13;2.30;;;;;;;14.26;77.79;100231.25;5011261;28;20377;-75
2022/11/03 13:21:12;;;;;;;9.65;2.78;;;;;;;14.32;76.17;100244.44;5006269;28;20162;-76
2022/11/03 13:23:38;;;;;;;6.68;2.25;;;;;;;14.43;75.72;100242.28;5016325;28;20647;-76
2022/11/03 13:26:03;;;;;;;7.10;3.13;;;;;;;14.55;74.80;100248.59;5007975;28;20030;-75
2022/11/03 13:28:32;;;;;;;7.50;2.75;;;;;;;14.66;75.17;100243.66;5013544;28;20558;-76
2022/11/03 13:30:57;;;;;;;12.02;2.47;;;;;;;14.75;74.59;100224.22;5016935;28;20045;-76
2022/11/03 13:33:22;;;;;;;8.43;2.78;;;;;;;14.63;74.96;100216.31;5014050;28;20143;-76
2022/11/03 13:35:48;;;;;;;8.00;2.80;;;;;;;14.59;75.53;100212.78;5014636;28;20048;-76
2022/11/03 13:38:13;;;;;;;6.32;2.92;;;;;;;14.61;74.76;100207.53;5014955;28;20040;-77
2022/11/03 13:40:38;;;;;;;6.97;2.38;;;;;;;14.55;75.16;100203.53;5016951;28;20025;-77
2022/11/03 13:43:04;;;;;;;7.03;3.45;;;;;;;14.52;77.01;100201.56;5018177;28;20033;-76
2022/11/03 13:45:29;;;;;;;11.05;3.35;;;;;;;14.55;75.64;100186.66;5016887;28;20136;-76
2022/11/03 13:47:56;;;;;;;6.97;2.42;;;;;;;14.49;75.76;100171.44;5020403;28;20037;-76
2022/11/03 13:50:22;;;;;;;8.43;3.15;;;;;;;14.57;75.02;100178.59;5018676;28;20033;-75
2022/11/03 13:52:47;;;;;;;8.73;2.88;;;;;;;14.49;76.62;100169.41;5015810;28;20191;-76
2022/11/03 13:55:13;;;;;;;6.53;2.45;;;;;;;14.55;74.92;100169.75;5013789;28;20484;-77
2022/11/03 13:57:38;;;;;;;8.93;3.22;;;;;;;14.69;75.21;100169.56;5020293;28;20037;-76
2022/11/03 14:00:04;;;;;;;7.03;2.47;;;;;;;14.68;77.35;100151.09;5019219;28;20041;-77
2022/11/03 14:02:30;;;;;;;8.88;2.70;;;;;;;14.68;74.03;100151.09;5014424;28;20436;-77
2022/11/03 14:04:55;;;;;;;9.32;2.53;;;;;;;14.66;74.38;100144.28;5014834;28;20061;-75
2022/11/03 14:07:21;;;;;;;6.80;2.20;;;;;;;14.60;74.82;100133.47;5011847;28;20037;-76
2022/11/03 14:09:46;;;;;;;4.57;1.90;;;;;;;14.69;74.53;100129.34;5018048;28;20033;-76
2022/11/03 14:12:29;;;;;;;5.57;2.00;;;;;;;14.74;74.28;100132.50;5011783;28;20148;-76
2022/11/03 14:15:03;;;;;;;7.25;2.80;;;;;;;14.68;75.21;100122.91;4979750;28;20050;-76
2022/11/03 14:17:29;;;;;;;10.60;2.70;;;;;;;14.62;75.57;100113.34;4978881;28;20030;-76
2022/11/03 14:19:55;;;;;;;6.95;2.90;;;;;;;14.63;74.81;100114.94;4977218;28;20092;-76
2022/11/03 14:22:22;;;;;;;11.77;2.65;;;;;;;14.57;75.49;100111.03;4971957;28;20034;-76
2022/11/03 14:24:48;;;;;;;8.65;2.25;;;;;;;14.58;74.77;100110.56;4979215;28;20223;-76
2022/11/03 14:27:14;;;;;;;8.98;2.83;;;;;;;14.57;75.00;100111.03;4970600;28;20089;-77
2022/11/03 14:29:40;;;;;;;6.32;2.33;;;;;;;14.51;75.55;100112.69;4981529;28;20049;-76
2022/11/03 14:32:06;;;;;;;9.15;2.40;;;;;;;14.52;75.20;100111.44;4973185;28;20034;-76
2022/11/03 14:34:34;;;;;;;8.07;3.13;;;;;;;14.46;75.87;100121.59;4973562;28;20371;-76
2022/11/03 14:36:59;;;;;;;6.72;2.05;;;;;;;14.38;75.59;100104.81;4971585;28;20066;-77
2022/11/03 14:39:24;;;;;;;8.88;2.60;;;;;;;14.35;77.56;100094.38;4978739;28;20555;-77
2022/11/03 14:42:02;;;;;;;5.03;2.10;;;;;;;14.28;76.74;100094.47;4979342;28;20038;-77
2022/11/03 14:44:37;;;;;;;8.95;2.22;;;;;;;14.26;76.37;100084.88;4980983;28;20034;-77
2022/11/03 14:47:05;;;;;;;7.53;2.10;;;;;;;14.22;76.36;100084.91;4979594;28;20069;-77
2022/11/03 14:49:31;;;;;;;8.77;2.53;;;;;;;14.21;76.19;100077.69;4974741;28;20045;-77
2022/11/03 14:51:58;;;;;;;11.05;2.85;;;;;;;14.15;76.86;100076.56;4976029;28;20030;-76
2022/11/03 14:54:24;;;;;;;6.00;1.98;;;;;;;14.12;77.76;100071.78;4986752;28;20025;-77
2022/11/03 14:56:50;;;;;;;5.05;1.90;;;;;;;14.07;77.46;100058.97;4974964;28;20035;-76
2022/11/03 14:59:15;;;;;;;6.03;2.40;;;;;;;14.03;77.07;100061.81;4978588;28;20122;-76
2022/11/03 15:01:41;;;;;;;7.68;2.45;;;;;;;14.05;78.98;100050.16;4976361;28;20164;-76
2022/11/03 15:04:07;;;;;;;9.52;2.53;;;;;;;14.01;77.30;100041.75;4976840;28;20030;-76
2022/11/03 15:06:33;;;;;;;8.48;3.38;;;;;;;14.06;76.90;100042.50;4995872;28;20014;-76
2022/11/03 15:08:59;;;;;;;10.93;2.45;;;;;;;14.00;77.39;100045.78;4976621;28;20165;-76
2022/11/03 15:11:24;;;;;;;5.78;3.22;;;;;;;13.96;79.20;100035.81;4975775;28;20505;-76
2022/11/03 15:13:50;;;;;;;7.65;2.30;;;;;;;13.95;79.01;100045.47;5009779;28;20041;-76
2022/11/03 15:16:15;;;;;;;4.82;2.30;;;;;;;13.92;78.27;100037.88;5015318;28;21721;-76
2022/11/03 15:18:42;;;;;;;5.78;3.17;;;;;;;13.92;80.28;100033.03;5016062;28;20112;-76
2022/11/03 15:21:08;;;;;;;6.35;2.55;;;;;;;13.91;77.93;100037.06;5011821;28;20836;-76
2022/11/03 15:23:33;;;;;;;7.85;2.40;;;;;;;13.89;79.25;100028.25;5022426;28;20029;-76
2022/11/03 15:25:59;;;;;;;5.05;2.40;;;;;;;13.85;78.31;100030.31;5023658;28;20033;-75
2022/11/03 15:28:24;;;;;;;7.03;2.63;;;;;;;13.86;78.55;100037.53;5018940;28;20033;-75
2022/11/03 15:30:49;;;;;;;5.90;2.60;;;;;;;13.85;78.24;100030.31;5021401;28;20025;-75
2022/11/03 15:33:17;;;;;;;8.23;2.25;;;;;;;13.81;78.40;100026.75;5017590;28;20036;-75
2022/11/03 15:35:46;;;;;;;7.47;2.30;;;;;;;13.79;78.24;100032.00;5028978;28;20025;-76
2022/11/03 15:38:14;;;;;;;9.75;2.40;;;;;;;13.81;78.76;100035.19;5022371;28;20559;-76
2022/11/03 15:40:39;;;;;;;4.97;2.80;;;;;;;13.76;78.99;100021.59;5015827;28;20497;-76
2022/11/03 15:43:05;;;;;;;7.72;3.25;;;;;;;13.73;79.83;100014.00;4999939;28;20036;-77
2022/11/03 15:45:31;;;;;;;10.85;3.35;;;;;;;13.66;80.08;100003.63;5018497;28;20048;-77
2022/11/03 15:47:57;;;;;;;9.30;4.25;;;;;;;13.67;79.64;99993.19;5015097;28;20041;-76
2022/11/03 15:50:22;;;;;;;7.63;3.15;;;;;;;13.66;79.76;100003.63;4997967;28;20033;-76
2022/11/03 15:52:48;;;;;;;5.25;2.13;;;;;;;13.62;80.16;100000.06;5016566;28;20061;-76
2022/11/03 15:55:13;;;;;;;7.72;2.80;;;;;;;13.63;80.70;99994.00;5021524;28;20116;-76
2022/11/03 15:57:38;;;;;;;9.07;2.90;;;;;;;13.62;80.03;99991.63;5030018;28;20037;-76
2022/11/03 16:00:05;;;;;;;10.82;2.83;;;;;;;13.60;80.44;100000.50;5018088;28;20060;-76
2022/11/03 16:02:31;;;;;;;5.55;2.70;;;;;;;13.59;80.22;99984.81;5015563;28;21055;-75
2022/11/03 16:04:56;;;;;;;8.48;2.63;;;;;;;13.55;80.92;99980.47;5023101;28;20029;-76
2022/11/03 16:07:21;;;;;;;11.07;2.50;;;;;;;13.54;82.44;99979.66;5013583;28;20507;-75
2022/11/03 16:09:47;;;;;;;6.32;2.45;;;;;;;13.52;83.25;99978.50;5015448;28;20061;-76
2022/11/03 16:12:12;;;;;;;14.13;3.45;;;;;;;13.53;85.30;99978.06;5021430;28;20087;-76
2022/11/03 16:14:38;;;;;;;10.65;7.07;;;;;;;13.43;85.29;99970.56;5028821;28;20151;-76
2022/11/03 16:17:04;;;;;;;21.08;9.32;;;;;;;13.37;85.62;99967.44;4993969;28;20402;-76
2022/11/03 16:19:29;;;;;;;9.02;5.07;;;;;;;13.26;88.16;99963.91;5017557;28;20488;-75
2022/11/03 16:21:55;;;;;;;12.32;6.00;;;;;;;13.17;88.05;99944.72;5014929;28;20114;-76
2022/11/03 16:24:20;;;;;;;12.25;7.50;;;;;;;13.16;89.69;99937.53;5017979;28;20374;-76
2022/11/03 16:26:45;;;;;;;13.27;7.55;;;;;;;13.11;90.67;99923.94;5015485;28;20112;-76
2022/11/03 16:29:11;;;;;;;5.55;4.30;;;;;;;13.09;90.65;99937.59;5022953;28;20040;-76
2022/11/03 16:31:36;;;;;;;9.82;4.22;;;;;;;13.02;91.94;99926.44;5017080;28;20049;-75
2022/11/03 16:34:03;;;;;;;8.52;4.20;;;;;;;13.01;91.77;99924.84;5015920;28;20026;-75
2022/11/03 16:36:28;;;;;;;8.13;3.47;;;;;;;12.97;92.85;99930.50;5019552;28;20029;-75
2022/11/03 16:38:54;;;;;;;10.07;4.43;;;;;;;12.95;93.25;99934.94;5013931;28;20678;-75
2022/11/03 16:41:19;;;;;;;7.53;5.13;;;;;;;12.86;94.11;99935.44;5024704;28;20497;-76
2022/11/03 16:43:46;;;;;;;12.48;6.65;;;;;;;12.79;95.49;99925.06;5016754;28;20120;-75
2022/11/03 16:46:11;;;;;;;16.55;6.13;;;;;;;12.84;95.76;99925.81;5022661;28;20040;-76
2022/11/03 16:48:37;;;;;;;9.35;4.30;;;;;;;12.75;96.98;99938.34;5023972;28;20030;-76
2022/11/03 16:51:02;;;;;;;5.80;3.85;;;;;;;12.78;97.75;99929.09;5017354;28;20374;-76
2022/11/03 16:53:27;;;;;;;7.32;3.78;;;;;;;12.74;97.48;99933.94;5016981;28;20057;-76
2022/11/03 16:55:53;;;;;;;10.48;5.80;;;;;;;12.73;100.00;99917.50;5017962;28;20037;-76
2022/11/03 16:58:18;;;;;;;9.85;7.55;;;;;;;12.71;98.50;99917.13;5014456;28;20396;-76
2022/11/03 17:00:44;;;;;;;7.22;5.38;;;;;;;12.61;99.85;99924.44;5021234;28;20083;-76
2022/11/03 17:03:09;;;;;;;9.48;4.85;;;;;;;12.56;100.00;99919.28;5012698;28;20582;-76
2022/11/03 17:05:34;;;;;;;10.65;6.47;;;;;;;12.61;100.00;99921.66;4997716;28;20088;-76
2022/11/03 17:08:00;;;;;;;7.05;3.92;;;;;;;12.49;100.00;99916.53;5014801;28;20045;-76
2022/11/03 17:10:27;;;;;;;12.88;3.92;;;;;;;12.47;100.00;99921.75;5020311;28;20037;-76
2022/11/03 17:12:53;;;;;;;11.63;4.15;;;;;;;12.47;100.00;99925.38;5019342;28;20117;-76
2022/11/03 17:15:19;;;;;;;7.95;6.28;;;;;;;12.47;100.00;99924.56;5014596;28;20037;-76
2022/11/03 17:17:44;;;;;;;6.55;4.80;;;;;;;12.45;100.00;99921.38;5021348;28;20033;-75
2022/11/03 17:20:10;;;;;;;7.13;3.95;;;;;;;12.46;100.00;99920.16;5015717;28;20034;-75
2022/11/03 17:22:36;;;;;;;9.27;4.97;;;;;;;12.37;100.00;99915.81;5019417;28;20025;-75
2022/11/03 17:25:02;;;;;;;11.73;5.43;;;;;;;12.34;100.00;99916.66;5022197;28;20037;-75
2022/11/03 17:27:35;;;;;;;10.65;4.93;;;;;;;12.24;100.00;99917.53;5019612;28;20103;-75
2022/11/03 17:30:07;;;;;;;7.55;4.18;;;;;;;12.31;100.00;99911.88;5028818;28;20064;-75
2022/11/03 17:32:39;;;;;;;11.67;8.07;;;;;;;12.14;100.00;99907.19;5020409;28;20029;-75
2022/11/03 17:35:16;;;;;;;10.05;6.53;;;;;;;12.14;100.00;99915.59;5028070;28;20079;-75